sensor_id;sensor_type;location;lat;lon;timestamp;P1;durP1;ratioP1;P2;durP2;ratioP2
6101;SDS011;3081;50.584;7.032;2023-02-15T00:01:52;33.37;;;13.70;;
6101;SDS011;3081;50.584;7.032;2023-02-15T00:04:20;29.43;;;13.17;;
6101;SDS011;3081;50.584;7.032;2023-02-15T00:06:48;26.73;;;13.10;;
6101;SDS011;3081;50.584;7.032;2023-02-15T00:09:17;31.47;;;15.23;;
6101;SDS011;3081;50.584;7.032;2023-02-15T00:11:44;33.67;;;14.00;;
6101;SDS011;3081;50.584;7.032;2023-02-15T00:14:16;23.53;;;11.93;;
6101;SDS011;3081;50.584;7.032;2023-02-15T00:16:44;15.63;;;7.47;;
6101;SDS011;3081;50.584;7.032;2023-02-15T00:19:12;30.93;;;12.57;;
6101;SDS011;3081;50.584;7.032;2023-02-15T00:21:40;22.97;;;10.60;;
6101;SDS011;3081;50.584;7.032;2023-02-15T00:24:08;29.30;;;12.90;;
6101;SDS011;3081;50.584;7.032;2023-02-15T00:26:38;34.63;;;15.07;;
6101;SDS011;3081;50.584;7.032;2023-02-15T00:29:07;29.50;;;14.57;;
6101;SDS011;3081;50.584;7.032;2023-02-15T00:31:34;28.10;;;14.33;;
6101;SDS011;3081;50.584;7.032;2023-02-15T00:34:02;22.90;;;11.80;;
6101;SDS011;3081;50.584;7.032;2023-02-15T00:36:29;11.93;;;6.77;;
6101;SDS011;3081;50.584;7.032;2023-02-15T00:38:56;33.43;;;14.40;;
6101;SDS011;3081;50.584;7.032;2023-02-15T00:41:23;27.37;;;12.60;;
6101;SDS011;3081;50.584;7.032;2023-02-15T00:43:51;30.60;;;11.93;;
6101;SDS011;3081;50.584;7.032;2023-02-15T00:46:18;30.30;;;13.10;;
6101;SDS011;3081;50.584;7.032;2023-02-15T00:48:45;20.30;;;9.90;;
6101;SDS011;3081;50.584;7.032;2023-02-15T00:51:12;30.70;;;13.00;;
6101;SDS011;3081;50.584;7.032;2023-02-15T00:53:39;23.40;;;10.10;;
6101;SDS011;3081;50.584;7.032;2023-02-15T00:56:06;24.90;;;10.10;;
6101;SDS011;3081;50.584;7.032;2023-02-15T00:58:33;27.13;;;11.10;;
6101;SDS011;3081;50.584;7.032;2023-02-15T01:01:03;37.43;;;15.73;;
6101;SDS011;3081;50.584;7.032;2023-02-15T01:03:32;32.50;;;13.93;;
6101;SDS011;3081;50.584;7.032;2023-02-15T01:06:00;36.87;;;15.57;;
6101;SDS011;3081;50.584;7.032;2023-02-15T01:08:27;35.17;;;14.00;;
6101;SDS011;3081;50.584;7.032;2023-02-15T01:10:55;37.47;;;14.83;;
6101;SDS011;3081;50.584;7.032;2023-02-15T01:13:22;25.97;;;10.90;;
6101;SDS011;3081;50.584;7.032;2023-02-15T01:15:52;27.93;;;11.10;;
6101;SDS011;3081;50.584;7.032;2023-02-15T01:18:21;43.97;;;11.37;;
6101;SDS011;3081;50.584;7.032;2023-02-15T01:20:48;51.63;;;13.23;;
6101;SDS011;3081;50.584;7.032;2023-02-15T01:23:15;58.40;;;16.87;;
6101;SDS011;3081;50.584;7.032;2023-02-15T01:25:42;23.00;;;11.43;;
6101;SDS011;3081;50.584;7.032;2023-02-15T01:28:09;32.37;;;14.10;;
6101;SDS011;3081;50.584;7.032;2023-02-15T01:30:36;32.77;;;13.50;;
6101;SDS011;3081;50.584;7.032;2023-02-15T01:33:03;33.50;;;14.87;;
6101;SDS011;3081;50.584;7.032;2023-02-15T01:35:32;58.37;;;16.63;;
6101;SDS011;3081;50.584;7.032;2023-02-15T01:37:59;48.43;;;14.77;;
6101;SDS011;3081;50.584;7.032;2023-02-15T01:40:26;42.80;;;14.97;;
6101;SDS011;3081;50.584;7.032;2023-02-15T01:42:53;97.23;;;17.77;;
6101;SDS011;3081;50.584;7.032;2023-02-15T01:45:22;48.77;;;14.50;;
6101;SDS011;3081;50.584;7.032;2023-02-15T01:47:52;46.57;;;15.27;;
6101;SDS011;3081;50.584;7.032;2023-02-15T01:50:25;82.93;;;16.83;;
6101;SDS011;3081;50.584;7.032;2023-02-15T01:53:00;39.93;;;9.50;;
6101;SDS011;3081;50.584;7.032;2023-02-15T01:55:31;38.40;;;13.37;;
6101;SDS011;3081;50.584;7.032;2023-02-15T01:58:01;37.27;;;13.60;;
6101;SDS011;3081;50.584;7.032;2023-02-15T02:00:29;45.40;;;14.20;;
6101;SDS011;3081;50.584;7.032;2023-02-15T02:02:56;37.50;;;15.07;;
6101;SDS011;3081;50.584;7.032;2023-02-15T02:05:24;36.90;;;14.10;;
6101;SDS011;3081;50.584;7.032;2023-02-15T02:07:51;30.67;;;14.47;;
6101;SDS011;3081;50.584;7.032;2023-02-15T02:10:23;31.33;;;14.03;;
6101;SDS011;3081;50.584;7.032;2023-02-15T02:12:51;27.70;;;12.33;;
6101;SDS011;3081;50.584;7.032;2023-02-15T02:15:23;32.83;;;13.10;;
6101;SDS011;3081;50.584;7.032;2023-02-15T02:18:00;25.50;;;11.40;;
6101;SDS011;3081;50.584;7.032;2023-02-15T02:20:48;24.00;;;11.40;;
6101;SDS011;3081;50.584;7.032;2023-02-15T02:23:43;25.40;;;10.00;;
6101;SDS011;3081;50.584;7.032;2023-02-15T02:26:47;26.50;;;10.57;;
6101;SDS011;3081;50.584;7.032;2023-02-15T02:36:11;34.80;;;12.67;;
6101;SDS011;3081;50.584;7.032;2023-02-15T02:38:48;33.17;;;12.70;;
6101;SDS011;3081;50.584;7.032;2023-02-15T02:41:24;23.90;;;9.40;;
6101;SDS011;3081;50.584;7.032;2023-02-15T02:43:59;26.27;;;12.63;;
6101;SDS011;3081;50.584;7.032;2023-02-15T02:46:32;24.50;;;12.20;;
6101;SDS011;3081;50.584;7.032;2023-02-15T02:49:04;33.23;;;11.70;;
6101;SDS011;3081;50.584;7.032;2023-02-15T02:51:31;34.80;;;16.37;;
6101;SDS011;3081;50.584;7.032;2023-02-15T02:53:58;24.90;;;11.30;;
6101;SDS011;3081;50.584;7.032;2023-02-15T02:56:31;24.07;;;11.40;;
6101;SDS011;3081;50.584;7.032;2023-02-15T02:59:04;25.60;;;10.43;;
6101;SDS011;3081;50.584;7.032;2023-02-15T03:01:37;32.90;;;13.33;;
6101;SDS011;3081;50.584;7.032;2023-02-15T03:04:09;24.70;;;10.40;;
6101;SDS011;3081;50.584;7.032;2023-02-15T03:06:40;44.67;;;15.47;;
6101;SDS011;3081;50.584;7.032;2023-02-15T03:09:12;46.73;;;13.50;;
6101;SDS011;3081;50.584;7.032;2023-02-15T03:11:44;47.67;;;14.13;;
6101;SDS011;3081;50.584;7.032;2023-02-15T03:14:11;30.03;;;12.10;;
6101;SDS011;3081;50.584;7.032;2023-02-15T03:16:40;33.53;;;9.80;;
6101;SDS011;3081;50.584;7.032;2023-02-15T03:19:11;15.63;;;8.10;;
6101;SDS011;3081;50.584;7.032;2023-02-15T03:21:42;31.03;;;12.57;;
6101;SDS011;3081;50.584;7.032;2023-02-15T03:24:15;39.13;;;11.23;;
6101;SDS011;3081;50.584;7.032;2023-02-15T03:26:48;30.03;;;10.70;;
6101;SDS011;3081;50.584;7.032;2023-02-15T03:29:17;31.77;;;10.30;;
6101;SDS011;3081;50.584;7.032;2023-02-15T03:31:46;23.00;;;9.10;;
6101;SDS011;3081;50.584;7.032;2023-02-15T03:34:18;25.33;;;10.77;;
6101;SDS011;3081;50.584;7.032;2023-02-15T03:36:46;23.33;;;7.70;;
6101;SDS011;3081;50.584;7.032;2023-02-15T03:39:19;20.87;;;9.67;;
6101;SDS011;3081;50.584;7.032;2023-02-15T03:41:55;21.13;;;8.90;;
6101;SDS011;3081;50.584;7.032;2023-02-15T03:44:27;21.80;;;11.20;;
6101;SDS011;3081;50.584;7.032;2023-02-15T03:46:58;16.53;;;6.43;;
6101;SDS011;3081;50.584;7.032;2023-02-15T03:49:32;19.83;;;9.03;;
6101;SDS011;3081;50.584;7.032;2023-02-15T03:52:05;22.47;;;11.03;;
6101;SDS011;3081;50.584;7.032;2023-02-15T03:54:34;18.37;;;9.67;;
6101;SDS011;3081;50.584;7.032;2023-02-15T03:57:13;26.63;;;10.23;;
6101;SDS011;3081;50.584;7.032;2023-02-15T04:00:00;19.70;;;9.60;;
6101;SDS011;3081;50.584;7.032;2023-02-15T04:02:55;21.30;;;10.23;;
6101;SDS011;3081;50.584;7.032;2023-02-15T04:05:36;21.33;;;10.20;;
6101;SDS011;3081;50.584;7.032;2023-02-15T04:08:04;22.47;;;9.83;;
6101;SDS011;3081;50.584;7.032;2023-02-15T04:10:31;12.57;;;6.67;;
6101;SDS011;3081;50.584;7.032;2023-02-15T04:13:15;27.43;;;9.03;;
6101;SDS011;3081;50.584;7.032;2023-02-15T04:15:42;16.27;;;8.30;;
6101;SDS011;3081;50.584;7.032;2023-02-15T04:18:27;17.30;;;8.03;;
6101;SDS011;3081;50.584;7.032;2023-02-15T04:21:12;18.73;;;6.97;;
6101;SDS011;3081;50.584;7.032;2023-02-15T04:23:56;22.70;;;9.30;;
6101;SDS011;3081;50.584;7.032;2023-02-15T04:26:41;18.53;;;9.13;;
6101;SDS011;3081;50.584;7.032;2023-02-15T04:29:07;27.53;;;11.97;;
6101;SDS011;3081;50.584;7.032;2023-02-15T04:31:34;19.10;;;10.17;;
6101;SDS011;3081;50.584;7.032;2023-02-15T04:34:01;20.17;;;10.83;;
6101;SDS011;3081;50.584;7.032;2023-02-15T04:36:29;21.67;;;10.60;;
6101;SDS011;3081;50.584;7.032;2023-02-15T04:38:56;16.23;;;8.20;;
6101;SDS011;3081;50.584;7.032;2023-02-15T04:41:23;22.47;;;10.17;;
6101;SDS011;3081;50.584;7.032;2023-02-15T04:43:50;21.50;;;11.10;;
6101;SDS011;3081;50.584;7.032;2023-02-15T04:46:17;33.60;;;12.33;;
6101;SDS011;3081;50.584;7.032;2023-02-15T04:48:44;17.80;;;9.30;;
6101;SDS011;3081;50.584;7.032;2023-02-15T04:51:11;8.03;;;5.13;;
6101;SDS011;3081;50.584;7.032;2023-02-15T04:53:39;25.20;;;9.27;;
6101;SDS011;3081;50.584;7.032;2023-02-15T04:56:06;21.63;;;10.43;;
6101;SDS011;3081;50.584;7.032;2023-02-15T04:58:33;25.83;;;11.63;;
6101;SDS011;3081;50.584;7.032;2023-02-15T05:01:00;24.73;;;10.50;;
6101;SDS011;3081;50.584;7.032;2023-02-15T05:03:27;23.70;;;11.27;;
6101;SDS011;3081;50.584;7.032;2023-02-15T05:05:54;23.00;;;11.27;;
6101;SDS011;3081;50.584;7.032;2023-02-15T05:08:21;22.30;;;11.13;;
6101;SDS011;3081;50.584;7.032;2023-02-15T05:10:49;22.13;;;11.27;;
6101;SDS011;3081;50.584;7.032;2023-02-15T05:13:16;21.80;;;10.10;;
6101;SDS011;3081;50.584;7.032;2023-02-15T05:15:46;17.43;;;7.80;;
6101;SDS011;3081;50.584;7.032;2023-02-15T05:18:14;23.97;;;10.37;;
6101;SDS011;3081;50.584;7.032;2023-02-15T05:20:42;25.60;;;11.80;;
6101;SDS011;3081;50.584;7.032;2023-02-15T05:23:08;21.37;;;10.60;;
6101;SDS011;3081;50.584;7.032;2023-02-15T05:25:36;19.30;;;10.20;;
6101;SDS011;3081;50.584;7.032;2023-02-15T05:28:22;25.97;;;11.80;;
6101;SDS011;3081;50.584;7.032;2023-02-15T05:30:50;23.67;;;11.00;;
6101;SDS011;3081;50.584;7.032;2023-02-15T05:33:26;12.10;;;6.60;;
6101;SDS011;3081;50.584;7.032;2023-02-15T05:35:53;19.30;;;10.40;;
6101;SDS011;3081;50.584;7.032;2023-02-15T05:38:20;18.27;;;7.77;;
6101;SDS011;3081;50.584;7.032;2023-02-15T05:40:46;21.00;;;8.37;;
6101;SDS011;3081;50.584;7.032;2023-02-15T05:43:13;15.17;;;6.93;;
6101;SDS011;3081;50.584;7.032;2023-02-15T05:45:45;17.63;;;9.30;;
6101;SDS011;3081;50.584;7.032;2023-02-15T05:48:12;18.87;;;8.67;;
6101;SDS011;3081;50.584;7.032;2023-02-15T05:50:39;22.47;;;11.20;;
6101;SDS011;3081;50.584;7.032;2023-02-15T05:53:06;22.70;;;11.50;;
6101;SDS011;3081;50.584;7.032;2023-02-15T05:55:33;16.73;;;9.07;;
6101;SDS011;3081;50.584;7.032;2023-02-15T05:58:00;19.40;;;9.80;;
6101;SDS011;3081;50.584;7.032;2023-02-15T06:00:26;23.10;;;11.87;;
6101;SDS011;3081;50.584;7.032;2023-02-15T06:02:55;19.17;;;10.20;;
6101;SDS011;3081;50.584;7.032;2023-02-15T06:05:22;22.00;;;10.87;;
6101;SDS011;3081;50.584;7.032;2023-02-15T06:07:49;14.23;;;7.23;;
6101;SDS011;3081;50.584;7.032;2023-02-15T06:10:16;22.97;;;10.53;;
6101;SDS011;3081;50.584;7.032;2023-02-15T06:12:43;20.57;;;9.70;;
6101;SDS011;3081;50.584;7.032;2023-02-15T06:15:10;18.67;;;9.73;;
6101;SDS011;3081;50.584;7.032;2023-02-15T06:17:40;16.77;;;9.13;;
6101;SDS011;3081;50.584;7.032;2023-02-15T06:20:09;18.57;;;7.13;;
6101;SDS011;3081;50.584;7.032;2023-02-15T06:22:36;18.83;;;8.13;;
6101;SDS011;3081;50.584;7.032;2023-02-15T06:25:03;27.10;;;11.50;;
6101;SDS011;3081;50.584;7.032;2023-02-15T06:27:31;22.03;;;10.23;;
6101;SDS011;3081;50.584;7.032;2023-02-15T06:29:57;19.07;;;8.73;;
6101;SDS011;3081;50.584;7.032;2023-02-15T06:32:24;19.27;;;9.10;;
6101;SDS011;3081;50.584;7.032;2023-02-15T06:34:51;19.43;;;9.23;;
6101;SDS011;3081;50.584;7.032;2023-02-15T06:37:19;20.07;;;10.20;;
6101;SDS011;3081;50.584;7.032;2023-02-15T06:39:46;19.00;;;9.87;;
6101;SDS011;3081;50.584;7.032;2023-02-15T06:42:13;16.77;;;9.13;;
6101;SDS011;3081;50.584;7.032;2023-02-15T06:44:40;17.00;;;8.80;;
6101;SDS011;3081;50.584;7.032;2023-02-15T06:47:07;18.60;;;9.03;;
6101;SDS011;3081;50.584;7.032;2023-02-15T06:49:34;17.87;;;9.23;;
6101;SDS011;3081;50.584;7.032;2023-02-15T06:52:01;19.03;;;9.17;;
6101;SDS011;3081;50.584;7.032;2023-02-15T06:54:29;17.40;;;9.07;;
6101;SDS011;3081;50.584;7.032;2023-02-15T06:56:56;15.00;;;8.30;;
6101;SDS011;3081;50.584;7.032;2023-02-15T06:59:23;18.33;;;9.07;;
6101;SDS011;3081;50.584;7.032;2023-02-15T07:01:50;20.33;;;10.00;;
6101;SDS011;3081;50.584;7.032;2023-02-15T07:04:17;23.80;;;10.95;;
6101;SDS011;3081;50.584;7.032;2023-02-15T07:06:44;11.47;;;6.03;;
6101;SDS011;3081;50.584;7.032;2023-02-15T07:09:11;23.55;;;12.43;;
6101;SDS011;3081;50.584;7.032;2023-02-15T07:11:39;20.73;;;9.80;;
6101;SDS011;3081;50.584;7.032;2023-02-15T07:14:24;19.63;;;10.13;;
6101;SDS011;3081;50.584;7.032;2023-02-15T07:16:51;24.87;;;11.93;;
6101;SDS011;3081;50.584;7.032;2023-02-15T07:19:18;16.60;;;6.87;;
6101;SDS011;3081;50.584;7.032;2023-02-15T07:21:44;18.03;;;7.70;;
6101;SDS011;3081;50.584;7.032;2023-02-15T07:24:11;19.13;;;9.90;;
6101;SDS011;3081;50.584;7.032;2023-02-15T07:26:40;13.93;;;7.27;;
6101;SDS011;3081;50.584;7.032;2023-02-15T07:29:06;19.20;;;8.77;;
6101;SDS011;3081;50.584;7.032;2023-02-15T07:31:34;15.30;;;6.80;;
6101;SDS011;3081;50.584;7.032;2023-02-15T07:34:00;6.73;;;3.73;;
6101;SDS011;3081;50.584;7.032;2023-02-15T07:36:27;25.10;;;9.00;;
6101;SDS011;3081;50.584;7.032;2023-02-15T07:38:54;28.23;;;14.03;;
6101;SDS011;3081;50.584;7.032;2023-02-15T07:41:21;19.30;;;8.10;;
6101;SDS011;3081;50.584;7.032;2023-02-15T07:43:50;27.90;;;12.80;;
6101;SDS011;3081;50.584;7.032;2023-02-15T07:46:17;19.20;;;10.37;;
6101;SDS011;3081;50.584;7.032;2023-02-15T07:48:46;13.90;;;6.53;;
6101;SDS011;3081;50.584;7.032;2023-02-15T07:51:13;16.07;;;8.17;;
6101;SDS011;3081;50.584;7.032;2023-02-15T07:53:41;18.40;;;9.40;;
6101;SDS011;3081;50.584;7.032;2023-02-15T07:56:09;14.80;;;7.57;;
6101;SDS011;3081;50.584;7.032;2023-02-15T07:58:37;21.83;;;10.83;;
6101;SDS011;3081;50.584;7.032;2023-02-15T08:01:18;16.43;;;9.50;;
6101;SDS011;3081;50.584;7.032;2023-02-15T08:03:46;16.17;;;8.60;;
6101;SDS011;3081;50.584;7.032;2023-02-15T08:06:13;19.10;;;9.57;;
6101;SDS011;3081;50.584;7.032;2023-02-15T08:08:40;18.87;;;9.87;;
6101;SDS011;3081;50.584;7.032;2023-02-15T08:11:14;20.43;;;11.67;;
6101;SDS011;3081;50.584;7.032;2023-02-15T08:13:55;18.73;;;9.97;;
6101;SDS011;3081;50.584;7.032;2023-02-15T08:16:26;16.30;;;8.43;;
6101;SDS011;3081;50.584;7.032;2023-02-15T08:18:54;15.10;;;9.33;;
6101;SDS011;3081;50.584;7.032;2023-02-15T08:21:22;21.27;;;11.50;;
6101;SDS011;3081;50.584;7.032;2023-02-15T08:23:51;18.07;;;7.30;;
6101;SDS011;3081;50.584;7.032;2023-02-15T08:26:18;22.20;;;11.93;;
6101;SDS011;3081;50.584;7.032;2023-02-15T08:28:45;15.30;;;8.10;;
6101;SDS011;3081;50.584;7.032;2023-02-15T08:31:13;17.20;;;9.00;;
6101;SDS011;3081;50.584;7.032;2023-02-15T08:33:42;16.93;;;8.47;;
6101;SDS011;3081;50.584;7.032;2023-02-15T08:36:10;20.30;;;10.40;;
6101;SDS011;3081;50.584;7.032;2023-02-15T08:38:41;22.00;;;10.73;;
6101;SDS011;3081;50.584;7.032;2023-02-15T08:41:10;18.87;;;9.10;;
6101;SDS011;3081;50.584;7.032;2023-02-15T08:43:38;15.60;;;7.93;;
6101;SDS011;3081;50.584;7.032;2023-02-15T08:46:05;19.23;;;10.17;;
6101;SDS011;3081;50.584;7.032;2023-02-15T08:48:33;19.63;;;8.93;;
6101;SDS011;3081;50.584;7.032;2023-02-15T08:51:05;18.03;;;9.20;;
6101;SDS011;3081;50.584;7.032;2023-02-15T08:53:35;21.70;;;10.37;;
6101;SDS011;3081;50.584;7.032;2023-02-15T08:56:03;18.37;;;8.93;;
6101;SDS011;3081;50.584;7.032;2023-02-15T08:58:30;17.43;;;8.20;;
6101;SDS011;3081;50.584;7.032;2023-02-15T09:00:57;21.27;;;9.87;;
6101;SDS011;3081;50.584;7.032;2023-02-15T09:03:24;21.07;;;9.60;;
6101;SDS011;3081;50.584;7.032;2023-02-15T09:05:56;19.60;;;9.83;;
6101;SDS011;3081;50.584;7.032;2023-02-15T09:08:25;18.43;;;8.93;;
6101;SDS011;3081;50.584;7.032;2023-02-15T09:10:52;19.23;;;9.73;;
6101;SDS011;3081;50.584;7.032;2023-02-15T09:13:20;19.67;;;10.40;;
6101;SDS011;3081;50.584;7.032;2023-02-15T09:15:47;17.30;;;8.60;;
6101;SDS011;3081;50.584;7.032;2023-02-15T09:18:14;19.90;;;10.77;;
6101;SDS011;3081;50.584;7.032;2023-02-15T09:20:42;24.90;;;14.57;;
6101;SDS011;3081;50.584;7.032;2023-02-15T09:23:10;25.73;;;15.30;;
6101;SDS011;3081;50.584;7.032;2023-02-15T09:25:38;21.40;;;11.43;;
6101;SDS011;3081;50.584;7.032;2023-02-15T09:28:05;20.97;;;11.20;;
6101;SDS011;3081;50.584;7.032;2023-02-15T09:30:33;17.73;;;9.43;;
6101;SDS011;3081;50.584;7.032;2023-02-15T09:33:00;18.47;;;9.47;;
6101;SDS011;3081;50.584;7.032;2023-02-15T09:35:27;17.60;;;9.17;;
6101;SDS011;3081;50.584;7.032;2023-02-15T09:37:54;18.80;;;9.50;;
6101;SDS011;3081;50.584;7.032;2023-02-15T09:40:21;17.83;;;9.40;;
6101;SDS011;3081;50.584;7.032;2023-02-15T09:45:46;19.73;;;10.60;;
6101;SDS011;3081;50.584;7.032;2023-02-15T09:48:38;16.40;;;9.07;;
6101;SDS011;3081;50.584;7.032;2023-02-15T09:51:11;17.50;;;9.30;;
6101;SDS011;3081;50.584;7.032;2023-02-15T09:54:03;28.50;;;14.70;;
6101;SDS011;3081;50.584;7.032;2023-02-15T09:56:42;33.57;;;14.50;;
6101;SDS011;3081;50.584;7.032;2023-02-15T09:59:16;32.10;;;12.83;;
6101;SDS011;3081;50.584;7.032;2023-02-15T10:01:55;30.17;;;16.10;;
6101;SDS011;3081;50.584;7.032;2023-02-15T10:04:38;22.80;;;12.50;;
6101;SDS011;3081;50.584;7.032;2023-02-15T10:07:14;21.33;;;13.07;;
6101;SDS011;3081;50.584;7.032;2023-02-15T10:09:57;21.80;;;11.87;;
6101;SDS011;3081;50.584;7.032;2023-02-15T10:12:36;29.43;;;15.47;;
6101;SDS011;3081;50.584;7.032;2023-02-15T10:15:25;34.60;;;14.50;;
6101;SDS011;3081;50.584;7.032;2023-02-15T10:18:14;21.77;;;11.90;;
6101;SDS011;3081;50.584;7.032;2023-02-15T10:20:52;22.97;;;11.10;;
6101;SDS011;3081;50.584;7.032;2023-02-15T10:23:32;20.87;;;9.77;;
6101;SDS011;3081;50.584;7.032;2023-02-15T10:26:16;19.87;;;10.43;;
6101;SDS011;3081;50.584;7.032;2023-02-15T10:28:46;21.80;;;12.40;;
6101;SDS011;3081;50.584;7.032;2023-02-15T10:31:26;21.17;;;11.80;;
6101;SDS011;3081;50.584;7.032;2023-02-15T10:34:05;20.17;;;11.17;;
6101;SDS011;3081;50.584;7.032;2023-02-15T10:36:45;23.93;;;11.17;;
6101;SDS011;3081;50.584;7.032;2023-02-15T10:39:31;22.00;;;12.00;;
6101;SDS011;3081;50.584;7.032;2023-02-15T10:42:06;20.70;;;10.40;;
6101;SDS011;3081;50.584;7.032;2023-02-15T10:44:41;19.90;;;11.10;;
6101;SDS011;3081;50.584;7.032;2023-02-15T10:47:22;21.80;;;10.87;;
6101;SDS011;3081;50.584;7.032;2023-02-15T10:50:20;19.03;;;10.97;;
6101;SDS011;3081;50.584;7.032;2023-02-15T10:52:59;18.73;;;10.27;;
6101;SDS011;3081;50.584;7.032;2023-02-15T10:55:43;21.37;;;10.80;;
6101;SDS011;3081;50.584;7.032;2023-02-15T10:58:21;19.40;;;10.77;;
6101;SDS011;3081;50.584;7.032;2023-02-15T11:00:59;20.37;;;12.00;;
6101;SDS011;3081;50.584;7.032;2023-02-15T11:03:43;22.30;;;12.10;;
6101;SDS011;3081;50.584;7.032;2023-02-15T11:06:31;29.40;;;14.10;;
6101;SDS011;3081;50.584;7.032;2023-02-15T11:09:01;30.07;;;13.20;;
6101;SDS011;3081;50.584;7.032;2023-02-15T11:11:32;21.33;;;11.23;;
6101;SDS011;3081;50.584;7.032;2023-02-15T11:14:02;25.53;;;12.57;;
6101;SDS011;3081;50.584;7.032;2023-02-15T11:16:32;19.47;;;10.13;;
6101;SDS011;3081;50.584;7.032;2023-02-15T11:19:05;21.23;;;10.70;;
6101;SDS011;3081;50.584;7.032;2023-02-15T11:21:38;23.73;;;10.93;;
6101;SDS011;3081;50.584;7.032;2023-02-15T11:24:10;22.10;;;9.83;;
6101;SDS011;3081;50.584;7.032;2023-02-15T11:26:39;21.20;;;11.50;;
6101;SDS011;3081;50.584;7.032;2023-02-15T11:29:10;46.90;;;23.13;;
6101;SDS011;3081;50.584;7.032;2023-02-15T11:31:41;25.97;;;13.10;;
6101;SDS011;3081;50.584;7.032;2023-02-15T11:34:13;26.47;;;14.20;;
6101;SDS011;3081;50.584;7.032;2023-02-15T11:36:46;47.13;;;22.33;;
6101;SDS011;3081;50.584;7.032;2023-02-15T11:39:17;29.23;;;14.27;;
6101;SDS011;3081;50.584;7.032;2023-02-15T11:41:47;33.03;;;15.70;;
6101;SDS011;3081;50.584;7.032;2023-02-15T11:44:19;26.53;;;12.70;;
6101;SDS011;3081;50.584;7.032;2023-02-15T11:46:51;52.47;;;21.93;;
6101;SDS011;3081;50.584;7.032;2023-02-15T11:49:24;27.50;;;14.53;;
6101;SDS011;3081;50.584;7.032;2023-02-15T11:51:53;24.30;;;12.80;;
6101;SDS011;3081;50.584;7.032;2023-02-15T11:54:23;22.27;;;11.90;;
6101;SDS011;3081;50.584;7.032;2023-02-15T11:56:54;26.50;;;16.53;;
6101;SDS011;3081;50.584;7.032;2023-02-15T11:59:24;26.73;;;13.87;;
6101;SDS011;3081;50.584;7.032;2023-02-15T12:01:55;35.87;;;19.40;;
6101;SDS011;3081;50.584;7.032;2023-02-15T12:04:24;51.17;;;26.30;;
6101;SDS011;3081;50.584;7.032;2023-02-15T12:06:57;50.03;;;22.30;;
6101;SDS011;3081;50.584;7.032;2023-02-15T12:09:29;35.47;;;17.70;;
6101;SDS011;3081;50.584;7.032;2023-02-15T12:14:47;26.50;;;16.20;;
6101;SDS011;3081;50.584;7.032;2023-02-15T12:17:15;26.53;;;14.60;;
6101;SDS011;3081;50.584;7.032;2023-02-15T12:19:44;20.13;;;11.63;;
6101;SDS011;3081;50.584;7.032;2023-02-15T12:22:18;22.40;;;12.13;;
6101;SDS011;3081;50.584;7.032;2023-02-15T12:24:49;21.80;;;12.27;;
6101;SDS011;3081;50.584;7.032;2023-02-15T12:27:18;19.47;;;10.40;;
6101;SDS011;3081;50.584;7.032;2023-02-15T12:29:48;20.20;;;11.60;;
6101;SDS011;3081;50.584;7.032;2023-02-15T12:32:17;21.03;;;12.60;;
6101;SDS011;3081;50.584;7.032;2023-02-15T12:34:49;18.83;;;11.13;;
6101;SDS011;3081;50.584;7.032;2023-02-15T12:37:19;22.90;;;12.00;;
6101;SDS011;3081;50.584;7.032;2023-02-15T12:39:53;23.93;;;12.07;;
6101;SDS011;3081;50.584;7.032;2023-02-15T12:42:22;23.33;;;12.10;;
6101;SDS011;3081;50.584;7.032;2023-02-15T12:44:53;20.63;;;10.43;;
6101;SDS011;3081;50.584;7.032;2023-02-15T12:47:22;21.30;;;12.10;;
6101;SDS011;3081;50.584;7.032;2023-02-15T12:52:43;20.77;;;11.47;;
6101;SDS011;3081;50.584;7.032;2023-02-15T12:55:18;26.60;;;13.43;;
6101;SDS011;3081;50.584;7.032;2023-02-15T12:57:48;19.73;;;10.87;;
6101;SDS011;3081;50.584;7.032;2023-02-15T13:00:26;23.00;;;11.57;;
6101;SDS011;3081;50.584;7.032;2023-02-15T13:02:57;22.90;;;11.70;;
6101;SDS011;3081;50.584;7.032;2023-02-15T13:05:29;21.83;;;11.77;;
6101;SDS011;3081;50.584;7.032;2023-02-15T13:08:00;20.53;;;10.90;;
6101;SDS011;3081;50.584;7.032;2023-02-15T13:10:30;19.30;;;11.13;;
6101;SDS011;3081;50.584;7.032;2023-02-15T13:13:01;24.57;;;13.63;;
6101;SDS011;3081;50.584;7.032;2023-02-15T13:15:36;40.13;;;20.10;;
6101;SDS011;3081;50.584;7.032;2023-02-15T13:18:10;22.97;;;12.40;;
6101;SDS011;3081;50.584;7.032;2023-02-15T13:20:42;21.53;;;11.77;;
6101;SDS011;3081;50.584;7.032;2023-02-15T13:23:13;24.80;;;11.60;;
6101;SDS011;3081;50.584;7.032;2023-02-15T13:25:52;21.47;;;11.13;;
6101;SDS011;3081;50.584;7.032;2023-02-15T13:28:22;21.43;;;12.50;;
6101;SDS011;3081;50.584;7.032;2023-02-15T13:30:52;24.07;;;12.57;;
6101;SDS011;3081;50.584;7.032;2023-02-15T13:33:21;18.90;;;11.47;;
6101;SDS011;3081;50.584;7.032;2023-02-15T13:35:57;20.03;;;11.37;;
6101;SDS011;3081;50.584;7.032;2023-02-15T13:41:20;22.10;;;12.40;;
6101;SDS011;3081;50.584;7.032;2023-02-15T13:43:54;23.10;;;11.03;;
6101;SDS011;3081;50.584;7.032;2023-02-15T13:46:41;19.87;;;11.83;;
6101;SDS011;3081;50.584;7.032;2023-02-15T13:49:21;21.07;;;11.30;;
6101;SDS011;3081;50.584;7.032;2023-02-15T13:52:02;22.37;;;12.30;;
6101;SDS011;3081;50.584;7.032;2023-02-15T13:54:49;21.23;;;12.00;;
6101;SDS011;3081;50.584;7.032;2023-02-15T13:57:33;24.40;;;11.20;;
6101;SDS011;3081;50.584;7.032;2023-02-15T14:00:13;19.37;;;11.03;;
6101;SDS011;3081;50.584;7.032;2023-02-15T14:02:54;22.70;;;12.73;;
6101;SDS011;3081;50.584;7.032;2023-02-15T14:05:34;24.17;;;13.10;;
6101;SDS011;3081;50.584;7.032;2023-02-15T14:08:18;23.37;;;12.03;;
6101;SDS011;3081;50.584;7.032;2023-02-15T14:10:56;20.60;;;11.13;;
6101;SDS011;3081;50.584;7.032;2023-02-15T14:13:36;22.47;;;12.70;;
6101;SDS011;3081;50.584;7.032;2023-02-15T14:16:27;25.70;;;13.20;;
6101;SDS011;3081;50.584;7.032;2023-02-15T14:19:11;20.43;;;10.90;;
6101;SDS011;3081;50.584;7.032;2023-02-15T14:21:46;23.43;;;12.63;;
6101;SDS011;3081;50.584;7.032;2023-02-15T14:24:21;20.90;;;12.00;;
6101;SDS011;3081;50.584;7.032;2023-02-15T14:26:57;23.30;;;12.50;;
6101;SDS011;3081;50.584;7.032;2023-02-15T14:29:38;24.40;;;13.43;;
6101;SDS011;3081;50.584;7.032;2023-02-15T14:32:14;22.17;;;12.67;;
6101;SDS011;3081;50.584;7.032;2023-02-15T14:34:47;38.73;;;19.00;;
6101;SDS011;3081;50.584;7.032;2023-02-15T14:37:19;38.37;;;16.87;;
6101;SDS011;3081;50.584;7.032;2023-02-15T14:39:55;24.13;;;13.30;;
6101;SDS011;3081;50.584;7.032;2023-02-15T14:42:45;20.57;;;10.80;;
6101;SDS011;3081;50.584;7.032;2023-02-15T14:45:21;25.07;;;12.40;;
6101;SDS011;3081;50.584;7.032;2023-02-15T14:47:52;27.80;;;14.47;;
6101;SDS011;3081;50.584;7.032;2023-02-15T14:50:37;30.33;;;15.10;;
6101;SDS011;3081;50.584;7.032;2023-02-15T14:58:56;26.40;;;14.93;;
6101;SDS011;3081;50.584;7.032;2023-02-15T15:01:39;25.13;;;13.23;;
6101;SDS011;3081;50.584;7.032;2023-02-15T15:04:08;24.90;;;13.97;;
6101;SDS011;3081;50.584;7.032;2023-02-15T15:06:39;26.30;;;13.60;;
6101;SDS011;3081;50.584;7.032;2023-02-15T15:09:10;25.97;;;14.47;;
6101;SDS011;3081;50.584;7.032;2023-02-15T15:11:42;22.63;;;12.03;;
6101;SDS011;3081;50.584;7.032;2023-02-15T15:17:08;33.23;;;17.60;;
6101;SDS011;3081;50.584;7.032;2023-02-15T15:22:39;26.37;;;12.87;;
6101;SDS011;3081;50.584;7.032;2023-02-15T15:25:11;28.03;;;14.07;;
6101;SDS011;3081;50.584;7.032;2023-02-15T15:28:00;27.20;;;12.73;;
6101;SDS011;3081;50.584;7.032;2023-02-15T15:33:17;31.60;;;15.90;;
6101;SDS011;3081;50.584;7.032;2023-02-15T15:36:12;35.30;;;19.20;;
6101;SDS011;3081;50.584;7.032;2023-02-15T15:39:15;25.53;;;12.87;;
6101;SDS011;3081;50.584;7.032;2023-02-15T15:42:11;31.03;;;13.70;;
6101;SDS011;3081;50.584;7.032;2023-02-15T15:44:57;31.77;;;14.80;;
6101;SDS011;3081;50.584;7.032;2023-02-15T15:47:51;30.70;;;15.70;;
6101;SDS011;3081;50.584;7.032;2023-02-15T15:50:25;90.67;;;44.37;;
6101;SDS011;3081;50.584;7.032;2023-02-15T15:52:54;72.50;;;37.20;;